createdAt,value
2017-06-26T00:11:57.647Z,54.29
2017-06-26T00:32:46.346Z,54.63
2017-06-26T00:35:28.059Z,54.67
2017-06-26T00:38:09.410Z,54.68
2017-06-26T00:40:51.128Z,54.68
2017-06-26T00:43:32.558Z,54.68
2017-06-26T00:53:28.392Z,54.76
2017-06-26T00:56:09.744Z,54.83
2017-06-26T00:58:51.303Z,54.85
2017-06-26T01:12:31.790Z,54.99
2017-06-26T01:33:19.808Z,55.30
2017-06-26T01:36:01.237Z,55.33
2017-06-26T01:38:42.823Z,55.32
2017-06-26T01:41:24.343Z,55.30
2017-06-26T01:44:05.755Z,55.29
2017-06-26T01:54:02.101Z,55.36
2017-06-26T01:56:43.548Z,55.40
2017-06-26T02:13:55.765Z,55.63
2017-06-26T02:34:44.544Z,55.89
2017-06-26T02:37:26.133Z,55.93
2017-06-26T02:40:07.405Z,55.92
2017-06-26T02:42:48.909Z,55.90
2017-06-26T02:56:22.234Z,55.89
2017-06-26T02:59:03.750Z,55.92
2017-06-26T03:12:53.148Z,55.88
2017-06-26T03:33:40.706Z,55.96
2017-06-26T03:36:22.124Z,55.96
2017-06-26T03:39:03.563Z,55.91
2017-06-26T03:41:45.091Z,55.88
2017-06-26T03:55:18.632Z,55.79
2017-06-26T03:57:59.987Z,55.77
2017-06-26T04:11:50.715Z,55.64
2017-06-26T04:32:38.301Z,55.47
2017-06-26T04:35:19.592Z,55.44
2017-06-26T04:38:00.984Z,55.39
2017-06-26T04:40:42.585Z,55.29
2017-06-26T04:43:24.189Z,55.21
2017-06-26T04:53:19.791Z,54.99
2017-06-26T04:56:01.137Z,54.95
2017-06-26T04:58:42.663Z,54.90
2017-06-26T05:12:26.344Z,54.78
2017-06-26T05:33:15.384Z,54.70
2017-06-26T05:35:57.060Z,54.77
2017-06-26T05:38:38.512Z,52.05
2017-06-26T05:41:19.873Z,50.82
2017-06-26T05:44:01.503Z,50.53
2017-06-26T05:53:58.689Z,50.82
2017-06-26T05:56:40.718Z,49.23
2017-06-26T05:59:22.740Z,48.84
2017-06-26T06:12:59.194Z,50.37
2017-06-26T06:33:47.160Z,48.29
2017-06-26T06:36:28.768Z,48.22
2017-06-26T06:39:10.328Z,49.83
2017-06-26T06:41:51.731Z,50.08
2017-06-26T06:44:33.235Z,49.87
2017-06-26T06:54:29.005Z,50.56
2017-06-26T06:57:10.604Z,50.77
2017-06-26T06:59:52.044Z,50.96
2017-06-26T07:13:32.759Z,51.72
2017-06-26T07:34:20.404Z,52.46
2017-06-26T07:37:02.076Z,52.54
2017-06-26T07:39:43.684Z,52.52
2017-06-26T07:42:24.998Z,52.54
2017-06-26T07:55:58.281Z,52.74
2017-06-26T07:58:39.932Z,52.80
2017-06-26T08:12:29.020Z,52.93
2017-06-26T08:33:17.160Z,53.08
2017-06-26T08:35:58.624Z,53.10
2017-06-26T08:38:39.958Z,53.06
2017-06-26T08:41:21.392Z,53.02
2017-06-26T08:44:03.025Z,52.96
2017-06-26T08:53:59.467Z,52.87
2017-06-26T08:56:41.155Z,52.92
2017-06-26T08:59:22.683Z,52.94
2017-06-26T09:13:02.279Z,53.06
2017-06-26T09:33:49.894Z,53.16
2017-06-26T09:36:31.246Z,53.12
2017-06-26T09:39:12.918Z,53.09
2017-06-26T09:41:54.554Z,53.07
2017-06-26T09:44:36.005Z,53.04
2017-06-26T09:54:32.333Z,53.08
2017-06-26T09:57:14.001Z,53.09
2017-06-26T09:59:55.452Z,53.07
2017-06-26T10:13:35.762Z,53.05
2017-06-26T10:34:24.540Z,53.05
2017-06-26T10:37:05.926Z,53.04
2017-06-26T10:39:47.381Z,53.03
2017-06-26T10:42:28.991Z,52.97
2017-06-26T10:45:10.513Z,52.92
2017-06-26T10:55:07.786Z,52.76
2017-06-26T10:57:49.280Z,52.78
2017-06-26T11:15:00.161Z,52.83
2017-06-26T11:35:48.577Z,47.58
2017-06-26T11:38:30.004Z,47.41
2017-06-26T11:41:11.567Z,47.42
2017-06-26T11:43:52.909Z,47.12
2017-06-26T11:57:26.253Z,46.29
2017-06-26T12:00:07.743Z,46.48
2017-06-26T12:13:54.035Z,47.75
2017-06-26T12:34:41.643Z,49.10
2017-06-26T12:37:23.045Z,49.22
2017-06-26T12:40:04.289Z,49.29
2017-06-26T12:42:46.008Z,49.35
2017-06-26T12:45:27.642Z,46.86
2017-06-26T12:55:23.581Z,45.82
2017-06-26T12:58:05.088Z,45.66
2017-06-26T13:15:16.174Z,45.50
2017-06-26T13:36:03.518Z,44.70
2017-06-26T13:38:44.853Z,44.64
2017-06-26T13:41:26.453Z,44.32
2017-06-26T13:44:08.198Z,44.48
2017-06-26T13:57:41.525Z,44.62
2017-06-26T14:00:23.277Z,44.49
2017-06-26T14:14:13.465Z,43.39
2017-06-26T14:35:01.016Z,41.07
2017-06-26T14:37:42.557Z,39.94
2017-06-26T14:40:23.909Z,39.98
2017-06-26T14:43:05.396Z,40.27
2017-06-26T14:45:46.910Z,40.11
2017-06-26T14:55:43.235Z,40.56
2017-06-26T14:58:24.653Z,40.17
2017-06-26T15:11:57.995Z,40.06
2017-06-26T15:14:26.002Z,40.51
2017-06-26T15:16:53.970Z,40.89
2017-06-26T15:19:21.915Z,40.60
2017-06-26T15:21:49.850Z,39.73
2017-06-26T15:24:17.768Z,40.12
2017-06-26T15:26:45.699Z,39.69
2017-06-26T17:09:28.489Z,38.99
2017-06-26T17:11:56.434Z,39.19
2017-06-26T17:14:24.366Z,39.12
2017-06-26T17:16:52.449Z,39.21
2017-06-26T17:19:20.390Z,39.24
2017-06-26T17:21:48.307Z,39.23
2017-06-26T17:24:16.327Z,39.38
2017-06-26T17:26:44.276Z,39.23
2017-06-26T17:29:12.272Z,39.24
2017-06-26T17:31:40.212Z,39.35
2017-06-26T17:34:08.450Z,39.03
2017-06-26T17:36:36.403Z,39.07
2017-06-26T17:39:04.373Z,39.38
2017-06-26T17:41:32.365Z,39.17
2017-06-26T17:44:00.300Z,38.68
2017-06-26T17:46:28.297Z,38.65
2017-06-26T17:48:56.287Z,38.80
2017-06-26T17:51:24.231Z,38.63
2017-06-26T17:53:52.141Z,39.16
2017-06-26T17:56:20.200Z,38.73
2017-06-26T17:58:48.918Z,38.57
2017-06-26T18:01:16.874Z,38.54
2017-06-26T18:03:44.809Z,38.38
2017-06-26T18:06:12.775Z,38.67
2017-06-26T18:08:40.919Z,38.70
2017-06-26T18:11:08.867Z,39.44
2017-06-26T18:13:36.829Z,38.65
2017-06-26T18:16:04.761Z,38.73
2017-06-26T18:18:32.681Z,38.44
2017-06-26T18:21:00.601Z,38.47
2017-06-26T18:23:28.552Z,38.17
2017-06-26T18:25:56.485Z,38.04
2017-06-26T18:28:24.436Z,38.16
2017-06-26T18:30:52.394Z,38.31
2017-06-26T18:33:20.321Z,38.41
2017-06-26T18:35:48.246Z,38.57
2017-06-26T18:38:16.229Z,38.81
2017-06-26T18:40:44.230Z,39.07
2017-06-26T18:43:12.160Z,39.36
2017-06-26T18:45:40.084Z,39.45
2017-06-26T18:48:08.016Z,39.59
2017-06-26T18:50:35.949Z,39.83
2017-06-26T18:53:03.869Z,39.86
2017-06-26T18:55:31.901Z,40.01
2017-06-26T18:57:59.864Z,40.29
2017-06-26T19:00:27.790Z,40.72
2017-06-26T19:02:55.775Z,41.25
2017-06-26T19:05:23.715Z,41.33
2017-06-26T19:07:51.837Z,41.54
2017-06-26T19:10:19.769Z,41.58
2017-06-26T19:12:47.715Z,41.57
2017-06-26T19:15:15.674Z,41.84
2017-06-26T19:17:43.604Z,42.32
2017-06-26T19:20:11.520Z,42.93
2017-06-26T19:22:39.445Z,43.25
2017-06-26T19:25:07.421Z,43.39
2017-06-26T19:27:35.324Z,43.66
2017-06-26T19:30:03.266Z,43.51
2017-06-26T19:32:31.198Z,43.37
2017-06-26T19:34:59.136Z,43.24
2017-06-26T19:37:27.093Z,43.29
2017-06-26T19:39:55.049Z,43.30
2017-06-26T19:42:23.021Z,43.28
2017-06-26T19:44:50.946Z,43.27
2017-06-26T19:47:18.897Z,43.26
2017-06-26T19:49:46.882Z,43.24
2017-06-26T19:52:14.801Z,43.40
2017-06-26T19:54:42.729Z,43.39
2017-06-26T19:59:33.269Z,43.63
2017-06-26T20:02:01.853Z,43.72
2017-06-26T20:04:29.841Z,43.87
2017-06-26T20:06:57.830Z,43.81
2017-06-26T20:09:25.770Z,43.77
2017-06-26T20:11:53.766Z,43.84
2017-06-26T20:14:21.738Z,43.96
2017-06-26T20:16:49.718Z,44.07
2017-06-26T20:19:17.671Z,44.00
2017-06-26T20:21:45.627Z,44.01
2017-06-26T20:24:13.695Z,44.07
2017-06-26T20:26:41.653Z,44.20
2017-06-26T20:29:09.573Z,44.66
2017-06-26T20:31:37.497Z,44.77
2017-06-26T20:34:05.426Z,44.84
2017-06-26T20:36:33.351Z,45.01
2017-06-26T20:39:01.295Z,44.95
2017-06-26T20:41:29.261Z,45.04
2017-06-26T20:43:57.198Z,45.11
2017-06-26T20:46:25.149Z,45.21
2017-06-26T20:48:53.060Z,45.20
2017-06-26T20:51:21.014Z,45.33
2017-06-26T20:53:48.970Z,45.42
2017-06-26T20:56:16.969Z,45.32
2017-06-26T20:58:44.905Z,45.46
2017-06-26T21:01:12.887Z,45.58
2017-06-26T21:03:40.845Z,45.52
2017-06-26T21:06:08.803Z,45.52
2017-06-26T21:08:36.817Z,45.49
2017-06-26T21:11:04.798Z,45.46
2017-06-26T21:13:32.725Z,45.46
2017-06-26T21:16:00.712Z,45.52
2017-06-26T21:18:28.640Z,45.57
2017-06-26T21:20:56.617Z,45.75
2017-06-26T21:23:24.572Z,45.68
2017-06-26T21:25:52.506Z,45.54
2017-06-26T21:28:20.427Z,45.50
2017-06-26T21:30:48.553Z,45.54
2017-06-26T21:33:16.589Z,45.69
2017-06-26T21:35:44.626Z,45.86
2017-06-26T21:38:12.563Z,45.99
2017-06-26T21:40:40.590Z,45.97
2017-06-26T21:43:08.538Z,46.05
2017-06-26T21:45:36.482Z,46.16
2017-06-26T21:48:04.421Z,46.24
2017-06-26T21:50:32.336Z,46.33
2017-06-26T21:53:00.313Z,46.36
2017-06-26T21:55:28.242Z,46.26
2017-06-26T21:57:56.164Z,46.31
2017-06-26T22:00:24.086Z,46.21
2017-06-26T22:02:52.005Z,46.23
2017-06-26T22:05:19.945Z,46.36
2017-06-26T22:07:48.170Z,46.39
2017-06-26T22:10:16.100Z,46.35
2017-06-26T22:12:44.030Z,46.38
2017-06-26T22:15:13.838Z,46.34
2017-06-26T22:17:41.749Z,46.29
2017-06-26T22:20:09.680Z,46.21
2017-06-26T22:22:37.620Z,46.38
2017-06-26T22:25:05.542Z,46.36
2017-06-26T22:27:33.468Z,46.45
2017-06-26T22:30:01.392Z,46.38
2017-06-26T22:32:29.318Z,46.42
2017-06-26T22:34:57.617Z,46.55
2017-06-26T22:37:25.525Z,46.41
2017-06-26T22:39:53.472Z,46.00
2017-06-26T22:42:21.382Z,46.03
2017-06-26T22:44:49.312Z,46.07
2017-06-26T22:47:17.264Z,46.02
2017-06-26T22:49:45.205Z,46.05
2017-06-26T22:52:13.125Z,46.13
2017-06-26T22:54:41.045Z,46.05
2017-06-26T22:57:08.964Z,46.11
2017-06-26T22:59:36.938Z,46.13
2017-06-26T23:02:04.873Z,46.16
2017-06-26T23:04:32.819Z,46.21
2017-06-26T23:07:00.803Z,46.23
2017-06-26T23:09:28.768Z,46.27
2017-06-26T23:11:56.704Z,46.32
2017-06-26T23:14:24.642Z,46.37
2017-06-26T23:16:52.597Z,46.41
2017-06-26T23:19:20.541Z,46.44
2017-06-26T23:21:48.457Z,46.47
2017-06-26T23:24:16.368Z,46.51
2017-06-26T23:26:44.292Z,46.53
2017-06-26T23:29:12.248Z,46.57
2017-06-26T23:31:40.186Z,46.60
2017-06-26T23:34:08.141Z,46.63
2017-06-26T23:36:36.117Z,46.65
2017-06-26T23:39:04.048Z,46.70
2017-06-26T23:41:31.974Z,46.74
2017-06-26T23:43:59.883Z,46.72
2017-06-26T23:46:27.813Z,46.77
2017-06-26T23:48:55.773Z,46.76
2017-06-26T23:51:23.700Z,46.85
2017-06-26T23:53:51.668Z,46.87
2017-06-26T23:56:19.608Z,46.84
2017-06-26T23:58:47.531Z,46.91
